Airport Name : Hall Beach

Other Name : Hall Beach

ICAO : CYUX

IATA : YUX

FAA :

Latitude : 68.776111

Longitude : -81.243611

Country : Canada

Local Date and Time : 17 May 2021 09:42

 

TAF (Terminal Aerodrome Forecast)

TAF CYUX 171238Z 1713/1801 VRB03KT 21/2SM -SN OVC012 TEMPO 1713/1717 P6SM NSW SCT012 PROB30 1713/1717 3/4SM BR FM171700 10010KT 2SM -SN BR OVC015 TEMPO 1717/1801 6SM BR SCT015 PROB40 1717/1801 3/4SM BR RMK FCST BASED ON AUTO OBS. NXT FCST BY 171900Z

 

METAR (METeorological Aerodrome Report)

CYUX 171311Z 12005KT 10SM -SN FEW008 BKN010 BKN220 M13/M14 A3017 RMK SF1ST4CS2 SLP220

CYUX 171300Z 13004KT 10SM -SN BKN010 M13/M14 A3017 RMK ST7 SLP220

CYUX 171200Z 09004KT 8SM -SN BKN012 OVC020 M15/M17 A3017 RMK ST6SC2 VIS NE 4 SLP220

CYUX 171155Z AUTO 10004KT 2 1/2SM -SN OVC012 M16/M17 A3017 RMK SLP220

CYUX 171154Z AUTO 09004KT 4SM -SN OVC012 M16/M17 A3017 RMK SLP220

CYUX 171134Z AUTO 06002KT 9SM -SN OVC012 M17/M19 A3017 RMK SLP220

CYUX 171100Z AUTO 01002KT 9SM OVC012 M21/M23 A3018 RMK SLP221

CYUX 171039Z AUTO 00000KT 9SM BKN012 M22/M25 A3018 RMK SLP221

CYUX 171000Z AUTO 31003KT 9SM CLR M23/M26 A3018 RMK SLP221

To Charter a Jet Click here.